Humboldt, Arizona
Current Conditions -  °F | °C
As of 11:53 PM on Saturday 25 Oct 2014 (Local Time) from KPRC Reporting Station
Clear Clear  
Wind Chill: 53°   Ceiling: Unl
Heat Index: 53°   Visibility: 10mi
Dew Point: 42°   Wind: 9mph
Humidity: 66%   Direction: 190°S
Pressure: 30.15"   Gusts: NA
Location:  34.5°N, 112.24°W
Report Text: KPRC 260653Z 19008KT 10SM CLR 12/06 A3015 RMK AO2 SLP143 T01170056 402560089
Loading
Personal Weather Stations






























Interactive Weather Map
Tropical Storm Tracking
New forecast layout! Learn more

10-Day Weather Forecast

Advertisements
Track Severe Weather on mobile